Flight Track Log - Related Links

Times and Time Zones

All times are in EST time to prevent confusion due to time zone crossing. See the SCX8700 flight status page for this flight to view local times or setup timezone preferences in your user account.

Time Position Orientation Groundspeed Altitude Reporting Facility
EST Latitude Longitude Course Direction KTS MPH feet Rate Location/Type
Sat 05:05:26 PM 44.9167 -93.2833 301° West 191 220 4,900  Level Minneapolis TRACON
Sat 05:06:46 PM 44.9467 -93.3747 295° West 243 280 7,000 2,426 Climbing Minneapolis Center
Sat 05:07:47 PM 44.9597 -93.4914 279° West 252 290 10,600 3,268 Climbing Minneapolis Center
Sat 05:08:49 PM 45.0075 -93.5772 308° West 310 357 13,700 3,317 Climbing Minneapolis Center
Sat 05:09:50 PM 45.0736 -93.6575 319° Northwest 316 364 17,400 3,443 Climbing Minneapolis Center
Sat 05:10:00 PM 45.2056 -93.5533 301° West  Level FlightAware Approximate
Sat 05:10:51 PM 45.1433 -93.7433 319° Northwest 329 379 20,700  Level Minneapolis Center
Sat 05:11:53 PM 45.2136 -93.8331 318° Northwest 335 386 23,800 2,780 Climbing Minneapolis Center
Sat 05:12:54 PM 45.2797 -93.9453 310° West 366 421 26,400 2,852 Climbing Minneapolis Center
Sat 05:13:55 PM 45.3469 -94.0575 310° West 373 429 29,600 2,732 Climbing Minneapolis Center
Sat 05:14:57 PM 45.4108 -94.1653 310° West 364 419 32,000 2,049 Climbing Minneapolis Center
Sat 05:15:58 PM 45.4869 -94.2919 311° West 356 410 33,800 984 Climbing Minneapolis Center
Sat 05:16:59 PM 45.5494 -94.4000 310° West 352 405 34,000 98 Climbing Minneapolis Center
Sat 05:18:01 PM 45.6153 -94.5097 311° West 361 415 34,000  Level Minneapolis Center
Sat 05:19:02 PM 45.6811 -94.6214 310° West 364 419 34,000 -393 Level Minneapolis Center
Sat 05:20:03 PM 45.7456 -94.7328 310° West 365 420 33,200 -878 Descending Minneapolis Center
Sat 05:21:05 PM 45.8075 -94.8378 310° West 351 404 32,200 -976 Descending Minneapolis Center
Sat 05:22:06 PM 45.8672 -94.9389 310° West 341 392 31,200 -984 Descending Minneapolis Center
Sat 05:23:07 PM 45.9256 -95.0419 309° West 333 383 30,200 -976 Descending Minneapolis Center
Sat 05:24:09 PM 45.9875 -95.1483 310° West 333 383 29,200 -976 Descending Minneapolis Center
Sat 05:25:10 PM 46.0450 -95.2492 309° West 331 381 28,200 -984 Descending Minneapolis Center
Sat 05:26:11 PM 46.1019 -95.3481 310° West 326 375 27,200 -1,073 Descending Minneapolis Center
Sat 05:27:13 PM 46.1689 -95.4647 310° West 317 365 26,000 -1,073 Descending Minneapolis Center
Sat 05:28:14 PM 46.2231 -95.5603 309° West 313 360 25,000 -1,377 Descending Minneapolis Center
Sat 05:29:15 PM 46.2761 -95.6542 309° West 308 354 23,200 -1,707 Descending Minneapolis Center
Sat 05:30:17 PM 46.3275 -95.7444 310° West 296 341 21,500 -1,659 Descending Minneapolis Center
Sat 05:31:18 PM 46.3758 -95.8311 309° West 282 325 19,800 -1,721 Descending Minneapolis Center
Sat 05:32:19 PM 46.4264 -95.9200 310° West 274 315 18,000 -1,659 Descending Minneapolis Center
Sat 05:33:21 PM 46.4769 -96.0119 309° West 276 318 16,400 -1,659 Descending Minneapolis Center
Sat 05:34:22 PM 46.5306 -96.0958 313° West 273 314 14,600 -1,967 Descending Minneapolis Center
Sat 05:35:23 PM 46.5811 -96.1692 315° West 269 310 12,400 -2,098 Descending Minneapolis Center
Sat 05:36:25 PM 46.6328 -96.2469 314° West 260 299 10,300 -2,098 Descending Minneapolis Center
Sat 05:37:26 PM 46.6831 -96.3222 314° West 252 290 8,100 -2,066 Descending Minneapolis Center
Sat 05:38:27 PM 46.7333 -96.3967 315° West 251 289 6,100 -1,024 Descending Minneapolis Center
Sat 05:39:29 PM 46.7772 -96.4639 314° West 241 277 6,000 -49 Descending Minneapolis Center
Sat 05:40:30 PM 46.8208 -96.5292 314° West 218 251 6,000 -488 Level Minneapolis Center
Sat 05:41:32 PM 46.8703 -96.5692 331° Northwest 208 239 5,000 -488 Descending Minneapolis Center
Sat 05:42:33 PM 46.9283 -96.5844 350° North 206 237 5,000  Level Minneapolis Center
Sat 05:43:35 PM 46.9794 -96.5972 350° North 190 219 5,000 -390 Level Minneapolis Center
Sat 05:44:36 PM 47.0264 -96.6089 350° North 169 194 4,200 -1,073 Descending Minneapolis Center
Sat 05:45:38 PM 47.0667 -96.6483 326° Northwest 171 197 2,800 -829 Descending Minneapolis Center
Sat 05:46:39 PM 47.0944 -96.7039 306° West 169 194 2,500 -148 Descending Minneapolis Center
Sat 05:47:40 PM 47.0789 -96.7536 245° Southwest 154 177 2,500  Level Minneapolis Center
Sat 05:48:42 PM 47.0419 -96.7911 215° Southwest 151 174 2,500  Level Minneapolis Center
Sat 05:49:43 PM 47.0064 -96.8147 204° Southwest 135 155 2,500 -341 Level Minneapolis Center
Sat 05:50:45 PM 46.9728 -96.8156 181° South 120 138 1,800 -634 Descending Minneapolis Center
Sat 05:51:46 PM 46.9417 -96.8158 180° South 119 137 1,200 -590 Descending Minneapolis Center

Login

Don't have an account? Register now (free) for customized features, flight alerts, and more!